sensor_id;sensor_type;location;lat;lon;timestamp;P1;durP1;ratioP1;P2;durP2;ratioP2
66143;SDS011;52947;50.842;6.084;2022-10-16T00:02:22;1.08;;;0.82;;
66143;SDS011;52947;50.842;6.084;2022-10-16T00:04:50;3.28;;;1.35;;
66143;SDS011;52947;50.842;6.084;2022-10-16T00:07:17;5.35;;;1.10;;
66143;SDS011;52947;50.842;6.084;2022-10-16T00:09:45;1.67;;;0.93;;
66143;SDS011;52947;50.842;6.084;2022-10-16T00:12:13;1.75;;;1.00;;
66143;SDS011;52947;50.842;6.084;2022-10-16T00:14:42;1.23;;;1.05;;
66143;SDS011;52947;50.842;6.084;2022-10-16T00:17:10;1.52;;;0.90;;
66143;SDS011;52947;50.842;6.084;2022-10-16T00:19:38;2.30;;;1.00;;
66143;SDS011;52947;50.842;6.084;2022-10-16T00:22:06;3.45;;;1.05;;
66143;SDS011;52947;50.842;6.084;2022-10-16T00:24:33;1.02;;;0.70;;
66143;SDS011;52947;50.842;6.084;2022-10-16T00:27:01;1.30;;;0.82;;
66143;SDS011;52947;50.842;6.084;2022-10-16T00:29:29;1.90;;;1.20;;
66143;SDS011;52947;50.842;6.084;2022-10-16T00:31:58;1.27;;;0.90;;
66143;SDS011;52947;50.842;6.084;2022-10-16T00:34:26;3.75;;;1.20;;
66143;SDS011;52947;50.842;6.084;2022-10-16T00:36:53;1.65;;;0.95;;
66143;SDS011;52947;50.842;6.084;2022-10-16T00:39:21;1.13;;;1.02;;
66143;SDS011;52947;50.842;6.084;2022-10-16T00:41:49;1.10;;;0.90;;
66143;SDS011;52947;50.842;6.084;2022-10-16T00:47:19;3.17;;;0.95;;
66143;SDS011;52947;50.842;6.084;2022-10-16T00:49:51;2.25;;;0.80;;
66143;SDS011;52947;50.842;6.084;2022-10-16T00:52:23;1.20;;;1.10;;
66143;SDS011;52947;50.842;6.084;2022-10-16T00:54:51;3.40;;;1.25;;
66143;SDS011;52947;50.842;6.084;2022-10-16T00:57:20;1.20;;;0.80;;
66143;SDS011;52947;50.842;6.084;2022-10-16T00:59:48;2.75;;;0.75;;
66143;SDS011;52947;50.842;6.084;2022-10-16T01:02:16;0.88;;;0.82;;
66143;SDS011;52947;50.842;6.084;2022-10-16T01:04:47;1.10;;;0.90;;
66143;SDS011;52947;50.842;6.084;2022-10-16T01:07:20;0.68;;;0.68;;
66143;SDS011;52947;50.842;6.084;2022-10-16T01:10:02;1.70;;;0.75;;
66143;SDS011;52947;50.842;6.084;2022-10-16T01:12:39;1.88;;;0.82;;
66143;SDS011;52947;50.842;6.084;2022-10-16T01:15:14;4.03;;;0.93;;
66143;SDS011;52947;50.842;6.084;2022-10-16T01:17:47;1.27;;;0.60;;
66143;SDS011;52947;50.842;6.084;2022-10-16T01:20:23;2.90;;;0.77;;
66143;SDS011;52947;50.842;6.084;2022-10-16T01:25:56;1.20;;;0.70;;
66143;SDS011;52947;50.842;6.084;2022-10-16T01:28:36;1.90;;;0.90;;
66143;SDS011;52947;50.842;6.084;2022-10-16T01:31:08;1.52;;;0.70;;
66143;SDS011;52947;50.842;6.084;2022-10-16T01:33:39;1.83;;;0.80;;
66143;SDS011;52947;50.842;6.084;2022-10-16T01:36:10;2.00;;;0.70;;
66143;SDS011;52947;50.842;6.084;2022-10-16T01:38:41;0.90;;;0.90;;
66143;SDS011;52947;50.842;6.084;2022-10-16T01:41:13;1.38;;;0.70;;
66143;SDS011;52947;50.842;6.084;2022-10-16T01:43:47;1.95;;;0.70;;
66143;SDS011;52947;50.842;6.084;2022-10-16T01:46:20;3.50;;;0.80;;
66143;SDS011;52947;50.842;6.084;2022-10-16T01:48:49;0.75;;;0.60;;
66143;SDS011;52947;50.842;6.084;2022-10-16T01:51:19;2.28;;;0.77;;
66143;SDS011;52947;50.842;6.084;2022-10-16T01:53:49;0.95;;;0.70;;
66143;SDS011;52947;50.842;6.084;2022-10-16T01:56:20;1.90;;;0.82;;
66143;SDS011;52947;50.842;6.084;2022-10-16T01:58:52;1.83;;;0.75;;
66143;SDS011;52947;50.842;6.084;2022-10-16T02:01:23;3.72;;;0.77;;
66143;SDS011;52947;50.842;6.084;2022-10-16T02:03:54;0.73;;;0.70;;
66143;SDS011;52947;50.842;6.084;2022-10-16T02:06:26;0.57;;;0.52;;
66143;SDS011;52947;50.842;6.084;2022-10-16T02:11:23;0.60;;;0.50;;
66143;SDS011;52947;50.842;6.084;2022-10-16T02:13:54;2.15;;;0.68;;
66143;SDS011;52947;50.842;6.084;2022-10-16T02:16:32;1.88;;;0.70;;
66143;SDS011;52947;50.842;6.084;2022-10-16T02:19:01;0.50;;;0.50;;
66143;SDS011;52947;50.842;6.084;2022-10-16T02:21:29;5.30;;;0.90;;
66143;SDS011;52947;50.842;6.084;2022-10-16T02:24:06;1.55;;;0.70;;
66143;SDS011;52947;50.842;6.084;2022-10-16T02:26:40;0.85;;;0.68;;
66143;SDS011;52947;50.842;6.084;2022-10-16T02:29:15;1.52;;;0.60;;
66143;SDS011;52947;50.842;6.084;2022-10-16T02:31:46;2.20;;;0.95;;
66143;SDS011;52947;50.842;6.084;2022-10-16T02:34:18;2.50;;;0.75;;
66143;SDS011;52947;50.842;6.084;2022-10-16T02:36:48;1.15;;;0.77;;
66143;SDS011;52947;50.842;6.084;2022-10-16T02:39:18;1.58;;;0.93;;
66143;SDS011;52947;50.842;6.084;2022-10-16T02:41:47;2.05;;;0.93;;
66143;SDS011;52947;50.842;6.084;2022-10-16T02:44:16;0.80;;;0.77;;
66143;SDS011;52947;50.842;6.084;2022-10-16T02:46:44;0.85;;;0.77;;
66143;SDS011;52947;50.842;6.084;2022-10-16T02:49:12;2.10;;;0.80;;
66143;SDS011;52947;50.842;6.084;2022-10-16T02:51:40;3.50;;;1.45;;
66143;SDS011;52947;50.842;6.084;2022-10-16T02:54:07;2.45;;;0.98;;
66143;SDS011;52947;50.842;6.084;2022-10-16T02:56:35;1.48;;;1.00;;
66143;SDS011;52947;50.842;6.084;2022-10-16T02:59:03;2.42;;;1.02;;
66143;SDS011;52947;50.842;6.084;2022-10-16T03:01:32;1.77;;;0.90;;
66143;SDS011;52947;50.842;6.084;2022-10-16T03:04:00;2.38;;;0.80;;
66143;SDS011;52947;50.842;6.084;2022-10-16T03:06:28;3.35;;;0.93;;
66143;SDS011;52947;50.842;6.084;2022-10-16T03:08:55;2.20;;;1.00;;
66143;SDS011;52947;50.842;6.084;2022-10-16T03:11:23;1.38;;;1.10;;
66143;SDS011;52947;50.842;6.084;2022-10-16T03:13:51;3.97;;;1.00;;
66143;SDS011;52947;50.842;6.084;2022-10-16T03:16:19;1.77;;;1.00;;
66143;SDS011;52947;50.842;6.084;2022-10-16T03:18:49;1.13;;;0.90;;
66143;SDS011;52947;50.842;6.084;2022-10-16T03:21:17;2.78;;;0.93;;
66143;SDS011;52947;50.842;6.084;2022-10-16T03:23:44;2.60;;;1.00;;
66143;SDS011;52947;50.842;6.084;2022-10-16T03:26:12;3.88;;;1.00;;
66143;SDS011;52947;50.842;6.084;2022-10-16T03:28:40;3.97;;;1.08;;
66143;SDS011;52947;50.842;6.084;2022-10-16T03:31:08;2.67;;;1.25;;
66143;SDS011;52947;50.842;6.084;2022-10-16T03:33:36;1.35;;;0.95;;
66143;SDS011;52947;50.842;6.084;2022-10-16T03:36:05;1.60;;;1.08;;
66143;SDS011;52947;50.842;6.084;2022-10-16T03:38:33;1.10;;;1.00;;
66143;SDS011;52947;50.842;6.084;2022-10-16T03:41:01;2.17;;;1.02;;
66143;SDS011;52947;50.842;6.084;2022-10-16T03:43:30;2.17;;;1.27;;
66143;SDS011;52947;50.842;6.084;2022-10-16T03:45:57;1.20;;;1.10;;
66143;SDS011;52947;50.842;6.084;2022-10-16T03:48:25;3.95;;;1.10;;
66143;SDS011;52947;50.842;6.084;2022-10-16T03:50:53;1.25;;;0.95;;
66143;SDS011;52947;50.842;6.084;2022-10-16T03:53:22;3.30;;;1.17;;
66143;SDS011;52947;50.842;6.084;2022-10-16T03:55:50;1.77;;;1.10;;
66143;SDS011;52947;50.842;6.084;2022-10-16T03:58:18;1.42;;;1.10;;
66143;SDS011;52947;50.842;6.084;2022-10-16T04:00:46;1.15;;;1.05;;
66143;SDS011;52947;50.842;6.084;2022-10-16T04:03:14;1.48;;;1.02;;
66143;SDS011;52947;50.842;6.084;2022-10-16T04:05:43;1.20;;;1.00;;
66143;SDS011;52947;50.842;6.084;2022-10-16T04:08:11;3.97;;;1.52;;
66143;SDS011;52947;50.842;6.084;2022-10-16T04:10:40;2.17;;;1.15;;
66143;SDS011;52947;50.842;6.084;2022-10-16T04:13:09;1.40;;;1.30;;
66143;SDS011;52947;50.842;6.084;2022-10-16T04:15:37;1.35;;;1.10;;
66143;SDS011;52947;50.842;6.084;2022-10-16T04:18:05;1.88;;;1.38;;
66143;SDS011;52947;50.842;6.084;2022-10-16T04:20:33;4.47;;;1.35;;
66143;SDS011;52947;50.842;6.084;2022-10-16T04:23:01;1.40;;;1.30;;
66143;SDS011;52947;50.842;6.084;2022-10-16T04:25:30;2.42;;;1.48;;
66143;SDS011;52947;50.842;6.084;2022-10-16T04:27:59;1.40;;;1.20;;
66143;SDS011;52947;50.842;6.084;2022-10-16T04:30:27;1.25;;;1.17;;
66143;SDS011;52947;50.842;6.084;2022-10-16T04:32:55;3.60;;;1.40;;
66143;SDS011;52947;50.842;6.084;2022-10-16T04:35:22;1.20;;;1.10;;
66143;SDS011;52947;50.842;6.084;2022-10-16T04:37:50;1.35;;;1.25;;
66143;SDS011;52947;50.842;6.084;2022-10-16T04:40:18;2.33;;;1.40;;
66143;SDS011;52947;50.842;6.084;2022-10-16T04:42:46;1.30;;;1.20;;
66143;SDS011;52947;50.842;6.084;2022-10-16T04:45:15;3.45;;;1.45;;
66143;SDS011;52947;50.842;6.084;2022-10-16T04:47:42;2.25;;;1.20;;
66143;SDS011;52947;50.842;6.084;2022-10-16T04:50:10;1.60;;;1.25;;
66143;SDS011;52947;50.842;6.084;2022-10-16T04:52:38;1.23;;;1.10;;
66143;SDS011;52947;50.842;6.084;2022-10-16T04:55:06;1.48;;;1.38;;
66143;SDS011;52947;50.842;6.084;2022-10-16T04:57:34;4.17;;;1.60;;
66143;SDS011;52947;50.842;6.084;2022-10-16T05:00:02;2.00;;;1.42;;
66143;SDS011;52947;50.842;6.084;2022-10-16T05:02:32;2.80;;;1.43;;
66143;SDS011;52947;50.842;6.084;2022-10-16T05:07:27;2.55;;;1.33;;
66143;SDS011;52947;50.842;6.084;2022-10-16T05:09:55;3.03;;;1.33;;
66143;SDS011;52947;50.842;6.084;2022-10-16T05:12:23;1.30;;;1.10;;
66143;SDS011;52947;50.842;6.084;2022-10-16T05:14:50;4.05;;;1.23;;
66143;SDS011;52947;50.842;6.084;2022-10-16T05:17:18;2.97;;;1.40;;
66143;SDS011;52947;50.842;6.084;2022-10-16T05:19:47;3.38;;;1.17;;
66143;SDS011;52947;50.842;6.084;2022-10-16T05:22:15;1.27;;;1.17;;
66143;SDS011;52947;50.842;6.084;2022-10-16T05:24:43;1.48;;;1.05;;
66143;SDS011;52947;50.842;6.084;2022-10-16T05:27:10;1.95;;;1.10;;
66143;SDS011;52947;50.842;6.084;2022-10-16T05:29:45;4.70;;;1.27;;
66143;SDS011;52947;50.842;6.084;2022-10-16T05:32:13;4.18;;;1.35;;
66143;SDS011;52947;50.842;6.084;2022-10-16T05:34:41;2.47;;;1.10;;
66143;SDS011;52947;50.842;6.084;2022-10-16T05:37:11;2.83;;;1.20;;
66143;SDS011;52947;50.842;6.084;2022-10-16T05:39:39;1.10;;;1.00;;
66143;SDS011;52947;50.842;6.084;2022-10-16T05:42:06;1.30;;;1.13;;
66143;SDS011;52947;50.842;6.084;2022-10-16T05:44:34;3.03;;;1.17;;
66143;SDS011;52947;50.842;6.084;2022-10-16T05:47:02;1.27;;;1.17;;
66143;SDS011;52947;50.842;6.084;2022-10-16T05:49:30;1.27;;;1.10;;
66143;SDS011;52947;50.842;6.084;2022-10-16T05:51:58;4.00;;;1.55;;
66143;SDS011;52947;50.842;6.084;2022-10-16T05:54:27;1.40;;;1.30;;
66143;SDS011;52947;50.842;6.084;2022-10-16T05:56:54;3.35;;;1.70;;
66143;SDS011;52947;50.842;6.084;2022-10-16T05:59:22;3.45;;;2.17;;
66143;SDS011;52947;50.842;6.084;2022-10-16T06:01:50;2.00;;;1.27;;
66143;SDS011;52947;50.842;6.084;2022-10-16T06:06:47;3.67;;;1.50;;
66143;SDS011;52947;50.842;6.084;2022-10-16T06:09:14;2.03;;;1.40;;
66143;SDS011;52947;50.842;6.084;2022-10-16T06:11:44;3.22;;;1.38;;
66143;SDS011;52947;50.842;6.084;2022-10-16T06:14:11;1.60;;;1.38;;
66143;SDS011;52947;50.842;6.084;2022-10-16T06:16:39;1.75;;;1.50;;
66143;SDS011;52947;50.842;6.084;2022-10-16T06:19:07;2.78;;;1.40;;
66143;SDS011;52947;50.842;6.084;2022-10-16T06:21:35;1.70;;;1.13;;
66143;SDS011;52947;50.842;6.084;2022-10-16T06:24:03;2.30;;;1.50;;
66143;SDS011;52947;50.842;6.084;2022-10-16T06:26:31;2.15;;;1.60;;
66143;SDS011;52947;50.842;6.084;2022-10-16T06:29:00;1.98;;;1.42;;
66143;SDS011;52947;50.842;6.084;2022-10-16T06:33:57;5.80;;;2.05;;
66143;SDS011;52947;50.842;6.084;2022-10-16T06:36:25;3.13;;;1.40;;
66143;SDS011;52947;50.842;6.084;2022-10-16T06:38:53;1.98;;;1.45;;
66143;SDS011;52947;50.842;6.084;2022-10-16T06:41:22;2.70;;;1.25;;
66143;SDS011;52947;50.842;6.084;2022-10-16T06:43:50;3.97;;;1.40;;
66143;SDS011;52947;50.842;6.084;2022-10-16T06:46:21;1.52;;;1.40;;
66143;SDS011;52947;50.842;6.084;2022-10-16T06:48:53;2.17;;;1.45;;
66143;SDS011;52947;50.842;6.084;2022-10-16T06:51:21;4.43;;;1.65;;
66143;SDS011;52947;50.842;6.084;2022-10-16T06:53:51;2.15;;;1.42;;
66143;SDS011;52947;50.842;6.084;2022-10-16T06:56:29;2.78;;;1.30;;
66143;SDS011;52947;50.842;6.084;2022-10-16T06:58:58;3.05;;;1.30;;
66143;SDS011;52947;50.842;6.084;2022-10-16T07:01:28;1.10;;;1.00;;
66143;SDS011;52947;50.842;6.084;2022-10-16T07:03:56;3.10;;;1.35;;
66143;SDS011;52947;50.842;6.084;2022-10-16T07:06:25;2.45;;;1.20;;
66143;SDS011;52947;50.842;6.084;2022-10-16T07:08:54;2.50;;;1.83;;
66143;SDS011;52947;50.842;6.084;2022-10-16T07:11:22;3.60;;;1.20;;
66143;SDS011;52947;50.842;6.084;2022-10-16T07:13:51;6.28;;;1.23;;
66143;SDS011;52947;50.842;6.084;2022-10-16T07:16:22;1.80;;;1.20;;
66143;SDS011;52947;50.842;6.084;2022-10-16T07:18:53;2.22;;;1.30;;
66143;SDS011;52947;50.842;6.084;2022-10-16T07:21:25;3.58;;;1.20;;
66143;SDS011;52947;50.842;6.084;2022-10-16T07:23:55;2.65;;;1.05;;
66143;SDS011;52947;50.842;6.084;2022-10-16T07:26:25;3.97;;;1.20;;
66143;SDS011;52947;50.842;6.084;2022-10-16T07:28:53;3.05;;;1.02;;
66143;SDS011;52947;50.842;6.084;2022-10-16T07:31:21;2.55;;;1.60;;
66143;SDS011;52947;50.842;6.084;2022-10-16T07:33:49;3.80;;;1.45;;
66143;SDS011;52947;50.842;6.084;2022-10-16T07:36:19;1.08;;;0.98;;
66143;SDS011;52947;50.842;6.084;2022-10-16T07:38:48;1.38;;;0.75;;
66143;SDS011;52947;50.842;6.084;2022-10-16T07:41:20;2.60;;;1.05;;
66143;SDS011;52947;50.842;6.084;2022-10-16T07:43:48;2.63;;;1.13;;
66143;SDS011;52947;50.842;6.084;2022-10-16T07:46:18;1.77;;;1.15;;
66143;SDS011;52947;50.842;6.084;2022-10-16T07:48:47;2.78;;;0.90;;
66143;SDS011;52947;50.842;6.084;2022-10-16T07:51:15;2.83;;;1.50;;
66143;SDS011;52947;50.842;6.084;2022-10-16T07:53:45;3.03;;;1.20;;
66143;SDS011;52947;50.842;6.084;2022-10-16T07:56:14;7.78;;;1.38;;
66143;SDS011;52947;50.842;6.084;2022-10-16T07:58:44;2.92;;;1.20;;
66143;SDS011;52947;50.842;6.084;2022-10-16T08:01:12;1.52;;;1.10;;
66143;SDS011;52947;50.842;6.084;2022-10-16T08:03:42;3.88;;;1.10;;
66143;SDS011;52947;50.842;6.084;2022-10-16T08:06:11;3.53;;;1.55;;
66143;SDS011;52947;50.842;6.084;2022-10-16T08:08:38;2.55;;;1.10;;
66143;SDS011;52947;50.842;6.084;2022-10-16T08:11:08;3.95;;;1.50;;
66143;SDS011;52947;50.842;6.084;2022-10-16T08:13:36;1.65;;;1.10;;
66143;SDS011;52947;50.842;6.084;2022-10-16T08:16:05;5.30;;;1.85;;
66143;SDS011;52947;50.842;6.084;2022-10-16T08:18:34;2.20;;;1.40;;
66143;SDS011;52947;50.842;6.084;2022-10-16T08:21:03;2.83;;;1.10;;
66143;SDS011;52947;50.842;6.084;2022-10-16T08:23:32;0.82;;;0.75;;
66143;SDS011;52947;50.842;6.084;2022-10-16T08:26:04;1.60;;;1.00;;
66143;SDS011;52947;50.842;6.084;2022-10-16T08:28:34;1.15;;;1.00;;
66143;SDS011;52947;50.842;6.084;2022-10-16T08:31:07;0.80;;;0.80;;
66143;SDS011;52947;50.842;6.084;2022-10-16T08:33:36;3.22;;;0.90;;
66143;SDS011;52947;50.842;6.084;2022-10-16T08:36:04;1.90;;;0.90;;
66143;SDS011;52947;50.842;6.084;2022-10-16T08:38:33;3.40;;;0.98;;
66143;SDS011;52947;50.842;6.084;2022-10-16T08:41:13;0.88;;;0.73;;
66143;SDS011;52947;50.842;6.084;2022-10-16T08:43:58;3.78;;;1.10;;
66143;SDS011;52947;50.842;6.084;2022-10-16T08:46:48;1.00;;;0.60;;
66143;SDS011;52947;50.842;6.084;2022-10-16T08:49:21;3.08;;;0.80;;
66143;SDS011;52947;50.842;6.084;2022-10-16T08:51:50;3.47;;;1.23;;
66143;SDS011;52947;50.842;6.084;2022-10-16T08:54:23;5.45;;;1.10;;
66143;SDS011;52947;50.842;6.084;2022-10-16T08:56:56;2.70;;;1.10;;
66143;SDS011;52947;50.842;6.084;2022-10-16T08:59:29;3.55;;;0.80;;
66143;SDS011;52947;50.842;6.084;2022-10-16T09:01:57;6.28;;;0.98;;
66143;SDS011;52947;50.842;6.084;2022-10-16T09:04:35;3.45;;;1.10;;
66143;SDS011;52947;50.842;6.084;2022-10-16T09:07:12;1.98;;;0.85;;
66143;SDS011;52947;50.842;6.084;2022-10-16T09:09:53;2.47;;;0.80;;
66143;SDS011;52947;50.842;6.084;2022-10-16T09:12:32;3.28;;;1.00;;
66143;SDS011;52947;50.842;6.084;2022-10-16T09:15:11;2.00;;;0.90;;
66143;SDS011;52947;50.842;6.084;2022-10-16T09:17:49;2.72;;;0.90;;
66143;SDS011;52947;50.842;6.084;2022-10-16T09:20:26;3.33;;;1.02;;
66143;SDS011;52947;50.842;6.084;2022-10-16T09:23:15;2.13;;;0.80;;
66143;SDS011;52947;50.842;6.084;2022-10-16T09:25:46;2.78;;;0.85;;
66143;SDS011;52947;50.842;6.084;2022-10-16T09:28:16;2.70;;;1.10;;
66143;SDS011;52947;50.842;6.084;2022-10-16T09:30:46;3.85;;;0.82;;
66143;SDS011;52947;50.842;6.084;2022-10-16T09:33:17;1.48;;;0.95;;
66143;SDS011;52947;50.842;6.084;2022-10-16T09:35:47;2.03;;;0.80;;
66143;SDS011;52947;50.842;6.084;2022-10-16T09:38:20;1.20;;;0.90;;
66143;SDS011;52947;50.842;6.084;2022-10-16T09:40:50;2.35;;;0.93;;
66143;SDS011;52947;50.842;6.084;2022-10-16T09:43:28;1.15;;;0.90;;
66143;SDS011;52947;50.842;6.084;2022-10-16T09:46:04;2.25;;;0.90;;
66143;SDS011;52947;50.842;6.084;2022-10-16T09:48:34;2.90;;;1.10;;
66143;SDS011;52947;50.842;6.084;2022-10-16T09:51:05;3.65;;;1.00;;
66143;SDS011;52947;50.842;6.084;2022-10-16T09:53:41;4.30;;;1.20;;
66143;SDS011;52947;50.842;6.084;2022-10-16T09:56:10;1.58;;;1.00;;
66143;SDS011;52947;50.842;6.084;2022-10-16T09:58:49;3.85;;;1.00;;
66143;SDS011;52947;50.842;6.084;2022-10-16T10:01:19;1.25;;;0.82;;
66143;SDS011;52947;50.842;6.084;2022-10-16T10:03:48;1.50;;;0.80;;
66143;SDS011;52947;50.842;6.084;2022-10-16T10:06:22;2.40;;;1.13;;
66143;SDS011;52947;50.842;6.084;2022-10-16T10:08:53;1.40;;;0.80;;
66143;SDS011;52947;50.842;6.084;2022-10-16T10:11:38;1.85;;;0.80;;
66143;SDS011;52947;50.842;6.084;2022-10-16T10:14:11;2.30;;;0.90;;
66143;SDS011;52947;50.842;6.084;2022-10-16T10:16:45;1.73;;;0.80;;
66143;SDS011;52947;50.842;6.084;2022-10-16T10:19:15;2.05;;;0.80;;
66143;SDS011;52947;50.842;6.084;2022-10-16T10:21:44;3.75;;;0.80;;
66143;SDS011;52947;50.842;6.084;2022-10-16T10:24:13;4.20;;;1.00;;
66143;SDS011;52947;50.842;6.084;2022-10-16T10:26:44;3.05;;;1.00;;
66143;SDS011;52947;50.842;6.084;2022-10-16T10:29:20;2.70;;;0.95;;
66143;SDS011;52947;50.842;6.084;2022-10-16T10:32:02;2.17;;;0.60;;
66143;SDS011;52947;50.842;6.084;2022-10-16T10:34:43;1.63;;;0.80;;
66143;SDS011;52947;50.842;6.084;2022-10-16T10:37:30;2.92;;;0.65;;
66143;SDS011;52947;50.842;6.084;2022-10-16T10:40:11;0.82;;;0.47;;
66143;SDS011;52947;50.842;6.084;2022-10-16T10:42:48;2.35;;;0.65;;
66143;SDS011;52947;50.842;6.084;2022-10-16T10:45:24;1.65;;;1.05;;
66143;SDS011;52947;50.842;6.084;2022-10-16T10:48:17;1.65;;;0.80;;
66143;SDS011;52947;50.842;6.084;2022-10-16T10:50:57;2.42;;;1.08;;
66143;SDS011;52947;50.842;6.084;2022-10-16T10:53:34;3.47;;;0.60;;
66143;SDS011;52947;50.842;6.084;2022-10-16T10:56:10;1.35;;;0.88;;
66143;SDS011;52947;50.842;6.084;2022-10-16T11:01:54;1.75;;;1.00;;
66143;SDS011;52947;50.842;6.084;2022-10-16T11:04:32;2.47;;;1.20;;
66143;SDS011;52947;50.842;6.084;2022-10-16T11:07:09;1.60;;;1.00;;
66143;SDS011;52947;50.842;6.084;2022-10-16T11:09:44;3.92;;;0.80;;
66143;SDS011;52947;50.842;6.084;2022-10-16T11:12:15;3.50;;;1.02;;
66143;SDS011;52947;50.842;6.084;2022-10-16T11:14:48;1.70;;;0.70;;
66143;SDS011;52947;50.842;6.084;2022-10-16T11:17:23;1.40;;;0.75;;
66143;SDS011;52947;50.842;6.084;2022-10-16T11:19:58;4.78;;;0.90;;
66143;SDS011;52947;50.842;6.084;2022-10-16T11:22:32;2.17;;;1.20;;
66143;SDS011;52947;50.842;6.084;2022-10-16T11:25:04;3.63;;;1.20;;
66143;SDS011;52947;50.842;6.084;2022-10-16T11:27:41;2.13;;;0.88;;
66143;SDS011;52947;50.842;6.084;2022-10-16T11:30:14;2.67;;;1.33;;
66143;SDS011;52947;50.842;6.084;2022-10-16T11:32:57;1.83;;;1.00;;
66143;SDS011;52947;50.842;6.084;2022-10-16T11:35:36;4.95;;;1.38;;
66143;SDS011;52947;50.842;6.084;2022-10-16T11:38:12;2.00;;;1.00;;
66143;SDS011;52947;50.842;6.084;2022-10-16T11:40:43;0.93;;;0.70;;
66143;SDS011;52947;50.842;6.084;2022-10-16T11:43:17;1.08;;;0.60;;
66143;SDS011;52947;50.842;6.084;2022-10-16T11:45:49;10.05;;;1.33;;
66143;SDS011;52947;50.842;6.084;2022-10-16T11:48:23;1.83;;;0.80;;
66143;SDS011;52947;50.842;6.084;2022-10-16T11:50:56;1.48;;;1.38;;
66143;SDS011;52947;50.842;6.084;2022-10-16T11:53:34;1.27;;;0.70;;
66143;SDS011;52947;50.842;6.084;2022-10-16T11:56:12;1.25;;;0.80;;
66143;SDS011;52947;50.842;6.084;2022-10-16T11:58:50;1.90;;;1.00;;
66143;SDS011;52947;50.842;6.084;2022-10-16T12:01:27;1.48;;;0.80;;
66143;SDS011;52947;50.842;6.084;2022-10-16T12:04:01;2.28;;;0.90;;
66143;SDS011;52947;50.842;6.084;2022-10-16T12:06:36;5.38;;;0.60;;
66143;SDS011;52947;50.842;6.084;2022-10-16T12:09:09;1.42;;;0.75;;
66143;SDS011;52947;50.842;6.084;2022-10-16T12:11:42;3.63;;;0.90;;
66143;SDS011;52947;50.842;6.084;2022-10-16T12:14:18;1.73;;;1.00;;
66143;SDS011;52947;50.842;6.084;2022-10-16T12:19:21;1.42;;;1.00;;
66143;SDS011;52947;50.842;6.084;2022-10-16T12:21:54;5.22;;;1.13;;
66143;SDS011;52947;50.842;6.084;2022-10-16T12:24:32;1.50;;;0.77;;
66143;SDS011;52947;50.842;6.084;2022-10-16T12:29:36;1.02;;;0.90;;
66143;SDS011;52947;50.842;6.084;2022-10-16T12:32:06;2.90;;;1.00;;
66143;SDS011;52947;50.842;6.084;2022-10-16T12:35:17;1.77;;;0.97;;
66143;SDS011;52947;50.842;6.084;2022-10-16T12:37:48;1.33;;;0.80;;
66143;SDS011;52947;50.842;6.084;2022-10-16T12:40:24;3.75;;;0.98;;
66143;SDS011;52947;50.842;6.084;2022-10-16T12:42:55;3.88;;;1.08;;
66143;SDS011;52947;50.842;6.084;2022-10-16T12:45:24;3.70;;;1.10;;
66143;SDS011;52947;50.842;6.084;2022-10-16T12:47:54;1.52;;;0.90;;
66143;SDS011;52947;50.842;6.084;2022-10-16T12:52:53;1.58;;;0.80;;
66143;SDS011;52947;50.842;6.084;2022-10-16T12:55:21;2.10;;;0.60;;
66143;SDS011;52947;50.842;6.084;2022-10-16T12:57:56;5.20;;;1.00;;
66143;SDS011;52947;50.842;6.084;2022-10-16T13:00:32;4.72;;;0.70;;
66143;SDS011;52947;50.842;6.084;2022-10-16T13:03:34;2.15;;;0.80;;
66143;SDS011;52947;50.842;6.084;2022-10-16T13:06:23;1.17;;;0.60;;
66143;SDS011;52947;50.842;6.084;2022-10-16T13:09:08;1.55;;;0.90;;
66143;SDS011;52947;50.842;6.084;2022-10-16T13:11:49;4.53;;;0.82;;
66143;SDS011;52947;50.842;6.084;2022-10-16T13:14:33;3.10;;;0.80;;
66143;SDS011;52947;50.842;6.084;2022-10-16T13:17:12;0.93;;;0.65;;
66143;SDS011;52947;50.842;6.084;2022-10-16T13:19:48;2.88;;;0.70;;
66143;SDS011;52947;50.842;6.084;2022-10-16T13:22:24;1.88;;;0.90;;
66143;SDS011;52947;50.842;6.084;2022-10-16T13:25:03;1.58;;;0.73;;
66143;SDS011;52947;50.842;6.084;2022-10-16T13:27:44;3.25;;;0.60;;
66143;SDS011;52947;50.842;6.084;2022-10-16T13:30:19;2.72;;;0.70;;
66143;SDS011;52947;50.842;6.084;2022-10-16T13:32:57;1.77;;;0.70;;
66143;SDS011;52947;50.842;6.084;2022-10-16T13:35:27;4.47;;;0.80;;
66143;SDS011;52947;50.842;6.084;2022-10-16T13:38:04;1.02;;;0.65;;
66143;SDS011;52947;50.842;6.084;2022-10-16T13:40:34;2.03;;;0.70;;
66143;SDS011;52947;50.842;6.084;2022-10-16T13:43:02;3.28;;;0.90;;
66143;SDS011;52947;50.842;6.084;2022-10-16T13:45:30;2.35;;;1.08;;
66143;SDS011;52947;50.842;6.084;2022-10-16T13:48:02;4.50;;;1.10;;
66143;SDS011;52947;50.842;6.084;2022-10-16T13:50:31;1.90;;;0.60;;
66143;SDS011;52947;50.842;6.084;2022-10-16T13:53:05;0.63;;;0.60;;
66143;SDS011;52947;50.842;6.084;2022-10-16T13:55:34;1.23;;;0.80;;
66143;SDS011;52947;50.842;6.084;2022-10-16T13:58:07;2.15;;;0.80;;
66143;SDS011;52947;50.842;6.084;2022-10-16T14:00:36;1.40;;;0.50;;
66143;SDS011;52947;50.842;6.084;2022-10-16T14:03:12;1.38;;;0.60;;
66143;SDS011;52947;50.842;6.084;2022-10-16T14:05:42;2.00;;;0.70;;
66143;SDS011;52947;50.842;6.084;2022-10-16T14:08:14;1.88;;;0.60;;
66143;SDS011;52947;50.842;6.084;2022-10-16T14:10:46;0.60;;;0.45;;
66143;SDS011;52947;50.842;6.084;2022-10-16T14:13:17;2.08;;;0.70;;
66143;SDS011;52947;50.842;6.084;2022-10-16T14:15:47;2.63;;;0.57;;
66143;SDS011;52947;50.842;6.084;2022-10-16T14:18:20;1.58;;;0.80;;
66143;SDS011;52947;50.842;6.084;2022-10-16T14:20:50;2.10;;;0.90;;
66143;SDS011;52947;50.842;6.084;2022-10-16T14:23:19;1.65;;;0.90;;
66143;SDS011;52947;50.842;6.084;2022-10-16T14:25:51;2.30;;;0.73;;
66143;SDS011;52947;50.842;6.084;2022-10-16T14:28:20;1.95;;;0.80;;
66143;SDS011;52947;50.842;6.084;2022-10-16T14:30:49;3.85;;;0.82;;
66143;SDS011;52947;50.842;6.084;2022-10-16T14:35:58;2.38;;;0.80;;
66143;SDS011;52947;50.842;6.084;2022-10-16T14:38:29;1.02;;;0.80;;
66143;SDS011;52947;50.842;6.084;2022-10-16T14:40:58;1.35;;;0.82;;
66143;SDS011;52947;50.842;6.084;2022-10-16T14:43:31;5.28;;;0.75;;
66143;SDS011;52947;50.842;6.084;2022-10-16T14:46:01;4.25;;;0.90;;
66143;SDS011;52947;50.842;6.084;2022-10-16T14:48:30;0.80;;;0.60;;
66143;SDS011;52947;50.842;6.084;2022-10-16T14:50:59;2.40;;;0.70;;
66143;SDS011;52947;50.842;6.084;2022-10-16T14:53:27;4.45;;;0.73;;
66143;SDS011;52947;50.842;6.084;2022-10-16T14:55:54;1.33;;;0.60;;
66143;SDS011;52947;50.842;6.084;2022-10-16T14:58:23;2.95;;;0.70;;
66143;SDS011;52947;50.842;6.084;2022-10-16T15:00:52;3.13;;;1.45;;
66143;SDS011;52947;50.842;6.084;2022-10-16T15:03:20;1.60;;;0.70;;
66143;SDS011;52947;50.842;6.084;2022-10-16T15:05:48;1.17;;;0.80;;
66143;SDS011;52947;50.842;6.084;2022-10-16T15:08:16;2.13;;;0.70;;
66143;SDS011;52947;50.842;6.084;2022-10-16T15:10:43;0.60;;;0.60;;
66143;SDS011;52947;50.842;6.084;2022-10-16T15:13:12;1.42;;;0.60;;
66143;SDS011;52947;50.842;6.084;2022-10-16T15:18:10;2.22;;;0.90;;
66143;SDS011;52947;50.842;6.084;2022-10-16T15:20:41;2.10;;;0.90;;
66143;SDS011;52947;50.842;6.084;2022-10-16T15:23:10;4.20;;;0.70;;
66143;SDS011;52947;50.842;6.084;2022-10-16T15:25:42;1.40;;;0.60;;
66143;SDS011;52947;50.842;6.084;2022-10-16T15:28:11;3.22;;;0.82;;
66143;SDS011;52947;50.842;6.084;2022-10-16T15:30:40;1.05;;;0.65;;
66143;SDS011;52947;50.842;6.084;2022-10-16T15:33:12;0.98;;;0.75;;
66143;SDS011;52947;50.842;6.084;2022-10-16T15:35:42;2.47;;;0.90;;
66143;SDS011;52947;50.842;6.084;2022-10-16T15:38:13;2.50;;;0.70;;
66143;SDS011;52947;50.842;6.084;2022-10-16T15:40:42;5.57;;;0.80;;
66143;SDS011;52947;50.842;6.084;2022-10-16T15:43:10;1.05;;;0.73;;
66143;SDS011;52947;50.842;6.084;2022-10-16T15:45:38;1.05;;;0.90;;